createdAt,value
2018-03-22T00:00:16.083Z,90.00
2018-03-22T00:01:16.057Z,90.00
2018-03-22T00:02:16.164Z,22.50
2018-03-22T00:03:16.057Z,67.50
2018-03-22T00:04:16.170Z,67.50
2018-03-22T00:05:16.178Z,90.00
2018-03-22T00:06:16.173Z,67.50
2018-03-22T00:07:16.087Z,112.50
2018-03-22T00:08:16.088Z,180.00
2018-03-22T00:09:16.174Z,157.50
2018-03-22T00:10:16.121Z,135.00
2018-03-22T00:11:16.066Z,45.00
2018-03-22T00:12:16.178Z,112.50
2018-03-22T00:13:16.065Z,225.00
2018-03-22T00:14:16.190Z,270.00
2018-03-22T00:15:16.177Z,135.00
2018-03-22T00:16:16.093Z,135.00
2018-03-22T00:17:16.069Z,180.00
2018-03-22T00:18:16.132Z,180.00
2018-03-22T00:19:16.178Z,180.00
2018-03-22T00:20:16.160Z,180.00
2018-03-22T00:21:16.096Z,90.00
2018-03-22T00:22:16.096Z,90.00
2018-03-22T00:23:16.135Z,112.50
2018-03-22T00:24:16.094Z,135.00
2018-03-22T00:25:16.191Z,315.00
2018-03-22T00:26:16.162Z,112.50
2018-03-22T00:27:16.193Z,157.50
2018-03-22T00:28:16.106Z,90.00
2018-03-22T00:29:16.142Z,112.50
2018-03-22T00:30:16.107Z,67.50
2018-03-22T00:31:16.076Z,67.50
2018-03-22T00:32:16.137Z,67.50
2018-03-22T00:33:16.182Z,45.00
2018-03-22T00:34:16.203Z,67.50
2018-03-22T00:35:16.198Z,67.50
2018-03-22T00:36:16.097Z,45.00
2018-03-22T00:37:16.216Z,315.00
2018-03-22T00:38:16.186Z,337.50
2018-03-22T00:39:16.234Z,112.50
2018-03-22T00:40:16.075Z,180.00
2018-03-22T00:41:16.142Z,180.00
2018-03-22T00:42:16.187Z,180.00
2018-03-22T00:43:16.075Z,112.50
2018-03-22T00:44:16.117Z,315.00
2018-03-22T00:45:16.113Z,67.50
2018-03-22T00:46:16.091Z,67.50
2018-03-22T00:47:16.194Z,22.50
2018-03-22T00:48:16.082Z,22.50
2018-03-22T00:49:16.087Z,135.00
2018-03-22T00:50:16.199Z,315.00
2018-03-22T00:51:16.156Z,45.00
2018-03-22T00:52:16.153Z,22.50
2018-03-22T00:53:16.200Z,67.50
2018-03-22T00:54:16.147Z,135.00
2018-03-22T00:55:16.076Z,22.50
2018-03-22T00:56:16.090Z,22.50
2018-03-22T00:57:16.212Z,315.00
2018-03-22T00:58:16.158Z,247.50
2018-03-22T00:59:16.202Z,22.50
2018-03-22T01:00:16.201Z,45.00
2018-03-22T01:01:16.151Z,45.00
2018-03-22T01:02:16.201Z,67.50
2018-03-22T01:03:16.095Z,22.50
2018-03-22T01:04:16.187Z,112.50
2018-03-22T01:05:16.121Z,67.50
2018-03-22T01:06:16.182Z,247.50
2018-03-22T01:07:16.204Z,270.00
2018-03-22T01:08:16.183Z,157.50
2018-03-22T01:09:16.123Z,157.50
2018-03-22T01:10:16.120Z,45.00
2018-03-22T01:11:16.184Z,90.00
2018-03-22T01:12:16.215Z,270.00
2018-03-22T01:13:16.158Z,247.50
2018-03-22T01:14:16.099Z,90.00
2018-03-22T01:15:16.187Z,90.00
2018-03-22T01:16:16.218Z,135.00
2018-03-22T01:17:16.210Z,225.00
2018-03-22T01:18:16.167Z,180.00
2018-03-22T01:19:16.163Z,180.00
2018-03-22T01:20:16.194Z,225.00
2018-03-22T01:21:16.129Z,67.50
2018-03-22T01:22:16.103Z,22.50
2018-03-22T01:23:16.169Z,67.50
2018-03-22T01:24:16.227Z,67.50
2018-03-22T01:25:16.130Z,112.50
2018-03-22T01:26:16.130Z,247.50
2018-03-22T01:27:16.219Z,45.00
2018-03-22T01:28:16.111Z,112.50
2018-03-22T01:29:16.202Z,157.50
2018-03-22T01:30:16.108Z,270.00
2018-03-22T01:31:16.135Z,202.50
2018-03-22T01:32:16.172Z,180.00
2018-03-22T01:33:16.195Z,157.50
2018-03-22T01:34:16.232Z,90.00
2018-03-22T01:35:16.144Z,112.50
2018-03-22T01:36:16.120Z,135.00
2018-03-22T01:37:16.236Z,180.00
2018-03-22T01:38:16.187Z,225.00
2018-03-22T01:39:16.111Z,225.00
2018-03-22T01:40:16.116Z,202.50
2018-03-22T01:41:16.138Z,225.00
2018-03-22T01:42:16.175Z,45.00
2018-03-22T01:43:16.122Z,45.00
2018-03-22T01:44:16.117Z,135.00
2018-03-22T01:45:16.145Z,157.50
2018-03-22T01:46:16.241Z,90.00
2018-03-22T01:47:16.229Z,135.00
2018-03-22T01:48:16.240Z,90.00
2018-03-22T01:49:16.203Z,90.00
2018-03-22T01:50:16.146Z,112.50
2018-03-22T01:51:16.237Z,90.00
2018-03-22T01:52:16.188Z,135.00
2018-03-22T01:53:16.128Z,202.50
2018-03-22T01:54:16.237Z,112.50
2018-03-22T01:55:16.302Z,90.00
2018-03-22T01:56:16.162Z,135.00
2018-03-22T01:57:16.239Z,247.50
2018-03-22T01:58:16.148Z,202.50
2018-03-22T01:59:16.211Z,90.00
2018-03-22T02:00:16.234Z,225.00
2018-03-22T02:01:16.212Z,270.00
2018-03-22T02:02:16.240Z,337.50
2018-03-22T02:03:16.239Z,337.50
2018-03-22T02:04:16.241Z,247.50
2018-03-22T02:05:16.245Z,157.50
2018-03-22T02:06:16.238Z,135.00
2018-03-22T02:07:16.191Z,90.00
2018-03-22T02:08:16.153Z,112.50
2018-03-22T02:09:16.247Z,157.50
2018-03-22T02:10:16.220Z,112.50
2018-03-22T02:11:16.136Z,90.00
2018-03-22T02:12:16.242Z,180.00
2018-03-22T02:13:16.246Z,180.00
2018-03-22T02:14:16.204Z,225.00
2018-03-22T02:15:16.196Z,247.50
2018-03-22T02:16:16.226Z,180.00
2018-03-22T02:17:16.229Z,90.00
2018-03-22T02:18:16.224Z,90.00
2018-03-22T02:19:16.132Z,157.50
2018-03-22T02:20:16.223Z,67.50
2018-03-22T02:21:16.161Z,67.50
2018-03-22T02:22:16.169Z,112.50
2018-03-22T02:23:16.200Z,90.00
2018-03-22T02:24:16.198Z,135.00
2018-03-22T02:25:16.256Z,157.50
2018-03-22T02:26:16.254Z,135.00
2018-03-22T02:27:16.252Z,135.00
2018-03-22T02:28:16.201Z,135.00
2018-03-22T02:29:16.237Z,112.50
2018-03-22T02:30:16.252Z,157.50
2018-03-22T02:31:16.143Z,112.50
2018-03-22T02:32:16.229Z,90.00
2018-03-22T02:33:16.264Z,112.50
2018-03-22T02:34:16.232Z,135.00
2018-03-22T02:35:16.171Z,90.00
2018-03-22T02:36:16.145Z,135.00
2018-03-22T02:37:16.182Z,180.00
2018-03-22T02:38:16.261Z,67.50
2018-03-22T02:39:16.223Z,112.50
2018-03-22T02:40:16.232Z,112.50
2018-03-22T02:41:16.177Z,112.50
2018-03-22T02:42:16.237Z,112.50
2018-03-22T02:43:16.150Z,112.50
2018-03-22T02:44:16.180Z,90.00
2018-03-22T02:45:16.244Z,157.50
2018-03-22T02:46:16.266Z,135.00
2018-03-22T02:47:16.262Z,180.00
2018-03-22T02:48:16.151Z,157.50
2018-03-22T02:49:16.285Z,135.00
2018-03-22T02:50:16.155Z,90.00
2018-03-22T02:51:16.184Z,180.00
2018-03-22T02:52:16.267Z,202.50
2018-03-22T02:53:16.276Z,270.00
2018-03-22T02:54:16.215Z,270.00
2018-03-22T02:55:16.224Z,337.50
2018-03-22T02:56:16.183Z,0.00
2018-03-22T02:57:16.251Z,315.00
2018-03-22T02:58:16.270Z,270.00
2018-03-22T02:59:16.273Z,270.00
2018-03-22T03:00:16.249Z,157.50
2018-03-22T03:01:16.277Z,90.00
2018-03-22T03:02:16.222Z,67.50
2018-03-22T03:03:16.236Z,180.00
2018-03-22T03:04:16.228Z,180.00
2018-03-22T03:05:16.276Z,270.00
2018-03-22T03:06:16.277Z,270.00
2018-03-22T03:07:16.275Z,135.00
2018-03-22T03:08:16.287Z,225.00
2018-03-22T03:09:16.283Z,247.50
2018-03-22T03:10:16.193Z,202.50
2018-03-22T03:11:16.166Z,157.50
2018-03-22T03:12:16.283Z,180.00
2018-03-22T03:13:16.231Z,225.00
2018-03-22T03:14:16.297Z,270.00
2018-03-22T03:15:16.281Z,157.50
2018-03-22T03:16:16.284Z,180.00
2018-03-22T03:17:16.286Z,180.00
2018-03-22T03:18:16.264Z,157.50
2018-03-22T03:19:16.289Z,112.50
2018-03-22T03:20:16.292Z,135.00
2018-03-22T03:21:16.240Z,180.00
2018-03-22T03:22:16.194Z,157.50
2018-03-22T03:23:16.240Z,157.50
2018-03-22T03:24:16.265Z,202.50
2018-03-22T03:25:16.301Z,270.00
2018-03-22T03:26:16.173Z,225.00
2018-03-22T03:27:16.234Z,202.50
2018-03-22T03:28:16.203Z,202.50
2018-03-22T03:29:16.293Z,202.50
2018-03-22T03:30:16.299Z,202.50
2018-03-22T03:31:16.271Z,202.50
2018-03-22T03:32:16.178Z,225.00
2018-03-22T03:33:16.186Z,270.00
2018-03-22T03:34:16.205Z,225.00
2018-03-22T03:35:16.267Z,225.00
2018-03-22T03:36:16.203Z,180.00
2018-03-22T03:37:16.306Z,202.50
2018-03-22T03:38:16.240Z,180.00
2018-03-22T03:39:16.255Z,180.00
2018-03-22T03:40:16.305Z,180.00
2018-03-22T03:41:16.276Z,135.00
2018-03-22T03:42:16.303Z,180.00
2018-03-22T03:43:16.210Z,112.50
2018-03-22T03:44:16.215Z,90.00
2018-03-22T03:45:16.259Z,67.50
2018-03-22T03:46:16.181Z,90.00
2018-03-22T03:47:16.301Z,112.50
2018-03-22T03:48:16.411Z,157.50
2018-03-22T03:49:16.281Z,135.00
2018-03-22T03:50:16.217Z,112.50
2018-03-22T03:51:16.280Z,112.50
2018-03-22T03:52:16.302Z,135.00
2018-03-22T03:53:16.261Z,135.00
2018-03-22T03:54:16.283Z,90.00
2018-03-22T03:55:16.190Z,135.00
2018-03-22T03:56:16.311Z,157.50
2018-03-22T03:57:16.263Z,135.00
2018-03-22T03:58:16.306Z,180.00
2018-03-22T03:59:16.304Z,180.00
2018-03-22T04:00:16.309Z,90.00
2018-03-22T04:01:16.255Z,112.50
2018-03-22T04:02:16.305Z,112.50
2018-03-22T04:03:16.258Z,112.50
2018-03-22T04:04:16.266Z,112.50
2018-03-22T04:05:16.198Z,90.00
2018-03-22T04:06:16.225Z,135.00
2018-03-22T04:07:16.223Z,112.50
2018-03-22T04:08:16.239Z,112.50
2018-03-22T04:09:16.260Z,112.50
2018-03-22T04:10:16.203Z,135.00
2018-03-22T04:11:16.275Z,112.50
2018-03-22T04:12:16.276Z,90.00
2018-03-22T04:13:16.206Z,90.00
2018-03-22T04:14:16.231Z,135.00
2018-03-22T04:15:16.246Z,157.50
2018-03-22T04:16:16.278Z,90.00
2018-03-22T04:17:16.323Z,90.00
2018-03-22T04:18:16.284Z,112.50
2018-03-22T04:19:16.237Z,157.50
2018-03-22T04:20:16.321Z,135.00
2018-03-22T04:21:16.272Z,112.50
2018-03-22T04:22:16.301Z,135.00
2018-03-22T04:23:16.334Z,112.50
2018-03-22T04:24:16.297Z,157.50
2018-03-22T04:25:16.278Z,90.00
2018-03-22T04:26:16.324Z,112.50
2018-03-22T04:27:16.280Z,157.50
2018-03-22T04:28:16.333Z,135.00
2018-03-22T04:29:16.249Z,90.00
2018-03-22T04:30:16.325Z,157.50
2018-03-22T04:31:16.277Z,67.50
2018-03-22T04:32:16.329Z,67.50
2018-03-22T04:33:16.329Z,90.00
2018-03-22T04:34:16.212Z,90.00
2018-03-22T04:35:16.276Z,135.00
2018-03-22T04:36:16.250Z,90.00
2018-03-22T04:37:16.286Z,90.00
2018-03-22T04:38:16.278Z,90.00
2018-03-22T04:39:16.287Z,67.50
2018-03-22T04:40:16.289Z,112.50
2018-03-22T04:41:16.283Z,112.50
2018-03-22T04:42:16.223Z,180.00
2018-03-22T04:43:16.260Z,112.50
2018-03-22T04:44:16.388Z,135.00
2018-03-22T04:46:16.287Z,135.00
2018-03-22T04:47:16.255Z,112.50
2018-03-22T04:48:16.316Z,90.00
2018-03-22T04:49:16.252Z,90.00
2018-03-22T04:50:16.336Z,90.00
2018-03-22T04:51:16.287Z,112.50
2018-03-22T04:52:16.253Z,90.00
2018-03-22T04:53:16.231Z,135.00
2018-03-22T04:54:16.308Z,112.50
2018-03-22T04:55:16.291Z,67.50
2018-03-22T04:56:16.342Z,135.00
2018-03-22T04:57:16.254Z,157.50
2018-03-22T04:58:16.289Z,90.00
2018-03-22T04:59:16.324Z,112.50
2018-03-22T05:00:16.292Z,135.00
2018-03-22T05:01:16.322Z,112.50
2018-03-22T05:02:16.298Z,112.50
2018-03-22T05:03:16.228Z,112.50
2018-03-22T05:04:16.364Z,112.50
2018-03-22T05:05:16.294Z,112.50
2018-03-22T05:06:16.353Z,135.00
2018-03-22T05:07:16.266Z,112.50
2018-03-22T05:08:16.308Z,112.50
2018-03-22T05:09:16.350Z,90.00
2018-03-22T05:10:16.333Z,112.50
2018-03-22T05:11:16.237Z,90.00
2018-03-22T05:12:16.262Z,157.50
2018-03-22T05:13:16.362Z,180.00
2018-03-22T05:14:16.331Z,135.00
2018-03-22T05:15:16.351Z,112.50
2018-03-22T05:16:16.354Z,157.50
2018-03-22T05:17:16.360Z,112.50
2018-03-22T05:18:16.355Z,157.50
2018-03-22T05:19:16.357Z,112.50
2018-03-22T05:20:16.242Z,112.50
2018-03-22T05:21:16.242Z,135.00
2018-03-22T05:22:16.248Z,112.50
2018-03-22T05:23:16.275Z,135.00
2018-03-22T05:24:16.318Z,112.50
2018-03-22T05:25:16.308Z,90.00
2018-03-22T05:26:16.253Z,135.00
2018-03-22T05:27:16.312Z,112.50
2018-03-22T05:28:16.281Z,112.50
2018-03-22T05:29:16.364Z,112.50
2018-03-22T05:30:16.245Z,90.00
2018-03-22T05:31:16.362Z,112.50
2018-03-22T05:32:16.367Z,90.00
2018-03-22T05:33:16.343Z,135.00
2018-03-22T05:34:16.345Z,112.50
2018-03-22T05:35:16.279Z,112.50
2018-03-22T05:36:16.253Z,90.00
2018-03-22T05:37:16.372Z,90.00
2018-03-22T05:38:16.377Z,135.00
2018-03-22T05:39:16.314Z,112.50
2018-03-22T05:40:16.374Z,112.50
2018-03-22T05:41:16.263Z,112.50
2018-03-22T05:42:16.257Z,90.00
2018-03-22T05:43:16.349Z,112.50
2018-03-22T05:44:16.370Z,112.50
2018-03-22T05:45:16.351Z,135.00
2018-03-22T05:46:16.371Z,112.50
2018-03-22T05:47:16.283Z,135.00
2018-03-22T05:48:16.295Z,90.00
2018-03-22T05:49:16.261Z,112.50
2018-03-22T05:50:16.295Z,112.50
2018-03-22T05:51:16.389Z,112.50
2018-03-22T05:52:16.354Z,90.00
2018-03-22T05:53:16.261Z,90.00
2018-03-22T05:54:16.289Z,90.00
2018-03-22T05:55:16.330Z,112.50
2018-03-22T05:56:16.375Z,90.00
2018-03-22T05:57:16.377Z,90.00
2018-03-22T05:58:16.262Z,90.00
2018-03-22T05:59:16.334Z,112.50
2018-03-22T06:00:16.335Z,112.50
2018-03-22T06:01:16.305Z,112.50
2018-03-22T06:02:16.266Z,90.00
2018-03-22T06:04:16.338Z,90.00
2018-03-22T06:05:16.307Z,90.00
2018-03-22T06:06:16.337Z,90.00
2018-03-22T06:07:16.346Z,90.00
2018-03-22T06:08:16.277Z,112.50
2018-03-22T06:09:16.385Z,90.00
2018-03-22T06:10:16.300Z,90.00
2018-03-22T06:11:16.272Z,135.00
2018-03-22T06:12:16.389Z,90.00
2018-03-22T06:13:16.269Z,90.00
2018-03-22T06:14:16.340Z,90.00
2018-03-22T06:15:16.278Z,90.00
2018-03-22T06:16:16.347Z,112.50
2018-03-22T06:17:16.341Z,90.00
2018-03-22T06:18:16.332Z,157.50
2018-03-22T06:19:16.395Z,112.50
2018-03-22T06:20:16.309Z,112.50
2018-03-22T06:21:16.358Z,135.00
2018-03-22T06:22:16.285Z,90.00
2018-03-22T06:23:16.309Z,112.50
2018-03-22T06:24:16.394Z,135.00
2018-03-22T06:25:16.279Z,112.50
2018-03-22T06:26:16.402Z,90.00
2018-03-22T06:27:16.371Z,90.00
2018-03-22T06:28:16.351Z,112.50
2018-03-22T06:29:16.289Z,135.00
2018-03-22T06:30:16.278Z,112.50
2018-03-22T06:31:16.314Z,90.00
2018-03-22T06:32:16.318Z,112.50
2018-03-22T06:33:16.290Z,135.00
2018-03-22T06:34:16.384Z,112.50
2018-03-22T06:35:16.353Z,90.00
2018-03-22T06:36:16.399Z,112.50
2018-03-22T06:37:16.319Z,112.50
2018-03-22T06:38:16.287Z,135.00
2018-03-22T06:39:16.343Z,135.00
2018-03-22T06:40:16.352Z,180.00
2018-03-22T06:41:16.381Z,112.50
2018-03-22T06:42:16.343Z,112.50
2018-03-22T06:43:16.403Z,112.50
2018-03-22T06:44:16.411Z,90.00
2018-03-22T06:45:16.291Z,90.00
2018-03-22T06:46:16.403Z,112.50
2018-03-22T06:47:16.386Z,112.50
2018-03-22T06:48:16.355Z,90.00
2018-03-22T06:49:16.381Z,90.00
2018-03-22T06:50:16.301Z,90.00
2018-03-22T06:51:16.301Z,90.00
2018-03-22T06:52:16.385Z,90.00
2018-03-22T06:53:16.328Z,90.00
2018-03-22T06:54:16.392Z,67.50
2018-03-22T06:55:16.408Z,112.50
2018-03-22T06:56:16.296Z,180.00
2018-03-22T06:57:16.358Z,90.00
2018-03-22T06:58:16.302Z,90.00
2018-03-22T06:59:16.371Z,90.00
2018-03-22T07:00:16.422Z,90.00
2018-03-22T07:01:16.393Z,112.50
2018-03-22T07:02:16.412Z,90.00
2018-03-22T07:03:16.422Z,90.00
2018-03-22T07:04:16.334Z,90.00
2018-03-22T07:05:16.415Z,90.00
2018-03-22T07:06:16.336Z,90.00
2018-03-22T07:07:16.327Z,90.00
2018-03-22T07:08:16.375Z,112.50
2018-03-22T07:09:16.400Z,112.50
2018-03-22T07:10:16.333Z,157.50
2018-03-22T07:11:16.422Z,157.50
2018-03-22T07:12:16.378Z,90.00
2018-03-22T07:13:16.369Z,157.50
2018-03-22T07:14:16.321Z,90.00
2018-03-22T07:15:16.379Z,67.50
2018-03-22T07:16:16.431Z,90.00
2018-03-22T07:17:16.308Z,90.00
2018-03-22T07:18:16.309Z,112.50
2018-03-22T07:19:16.431Z,112.50
2018-03-22T07:20:16.368Z,112.50
2018-03-22T07:21:16.373Z,67.50
2018-03-22T07:22:16.383Z,90.00
2018-03-22T07:23:16.312Z,90.00
2018-03-22T07:24:16.384Z,112.50
2018-03-22T07:25:16.348Z,112.50
2018-03-22T07:26:16.409Z,90.00
2018-03-22T07:27:16.426Z,67.50
2018-03-22T07:28:16.426Z,112.50
2018-03-22T07:29:16.435Z,90.00
2018-03-22T07:30:16.389Z,45.00
2018-03-22T07:31:16.407Z,90.00
2018-03-22T07:32:16.371Z,67.50
2018-03-22T07:33:16.436Z,157.50
2018-03-22T07:34:16.411Z,157.50
2018-03-22T07:35:16.435Z,157.50
2018-03-22T07:36:16.345Z,67.50
2018-03-22T07:37:16.389Z,180.00
2018-03-22T07:38:16.441Z,135.00
2018-03-22T07:39:16.480Z,180.00
2018-03-22T07:40:16.411Z,45.00
2018-03-22T07:41:16.359Z,247.50
2018-03-22T07:42:16.409Z,292.50
2018-03-22T07:43:16.395Z,337.50
2018-03-22T07:44:16.418Z,292.50
2018-03-22T07:45:16.392Z,135.00
2018-03-22T07:46:16.449Z,225.00
2018-03-22T07:47:16.465Z,337.50
2018-03-22T07:48:16.447Z,157.50
2018-03-22T07:49:16.329Z,112.50
2018-03-22T07:50:16.432Z,270.00
2018-03-22T07:51:16.452Z,315.00
2018-03-22T07:52:16.371Z,270.00
2018-03-22T07:53:16.431Z,135.00
2018-03-22T07:54:16.330Z,67.50
2018-03-22T07:55:16.331Z,112.50
2018-03-22T07:56:16.403Z,202.50
2018-03-22T07:57:16.402Z,225.00
2018-03-22T07:58:16.343Z,292.50
2018-03-22T07:59:16.423Z,90.00
2018-03-22T08:00:16.429Z,157.50
2018-03-22T08:01:16.345Z,135.00
2018-03-22T08:02:16.364Z,112.50
2018-03-22T08:03:16.405Z,112.50
2018-03-22T08:04:16.456Z,112.50
2018-03-22T08:05:16.337Z,112.50
2018-03-22T08:06:16.458Z,90.00
2018-03-22T08:07:16.399Z,90.00
2018-03-22T08:08:16.349Z,90.00
2018-03-22T08:09:16.453Z,90.00
2018-03-22T08:10:16.349Z,112.50
2018-03-22T08:11:16.377Z,135.00
2018-03-22T08:12:16.357Z,67.50
2018-03-22T08:13:16.386Z,90.00
2018-03-22T08:14:16.400Z,90.00
2018-03-22T08:15:16.376Z,112.50
2018-03-22T08:16:16.466Z,90.00
2018-03-22T08:17:16.368Z,135.00
2018-03-22T08:18:16.349Z,67.50
2018-03-22T08:19:16.422Z,67.50
2018-03-22T08:20:16.468Z,67.50
2018-03-22T08:21:16.418Z,135.00
2018-03-22T08:22:16.357Z,112.50
2018-03-22T08:23:16.357Z,90.00
2018-03-22T08:24:16.468Z,90.00
2018-03-22T08:25:16.471Z,90.00
2018-03-22T08:26:16.478Z,112.50
2018-03-22T08:27:16.413Z,90.00
2018-03-22T08:28:16.467Z,90.00
2018-03-22T08:29:16.354Z,90.00
2018-03-22T08:30:16.418Z,90.00
2018-03-22T08:31:16.476Z,90.00
2018-03-22T08:32:16.379Z,112.50
2018-03-22T08:33:16.386Z,112.50
2018-03-22T08:34:16.477Z,112.50
2018-03-22T08:35:16.469Z,90.00
2018-03-22T08:36:16.365Z,67.50
2018-03-22T08:37:16.422Z,112.50
2018-03-22T08:38:16.426Z,135.00
2018-03-22T08:39:16.428Z,67.50
2018-03-22T08:40:16.481Z,157.50
2018-03-22T08:41:16.433Z,157.50
2018-03-22T08:42:16.433Z,90.00
2018-03-22T08:43:16.451Z,202.50
2018-03-22T08:44:16.425Z,157.50
2018-03-22T08:45:16.394Z,180.00
2018-03-22T08:46:16.358Z,90.00
2018-03-22T08:47:16.459Z,225.00
2018-03-22T08:48:16.532Z,202.50
2018-03-22T08:49:16.453Z,90.00
2018-03-22T08:50:16.483Z,135.00
2018-03-22T08:51:16.402Z,90.00
2018-03-22T08:52:16.367Z,292.50
2018-03-22T08:53:16.368Z,225.00
2018-03-22T08:54:16.399Z,157.50
2018-03-22T08:55:16.463Z,157.50
2018-03-22T08:56:16.441Z,225.00
2018-03-22T08:57:16.442Z,112.50
2018-03-22T08:58:16.398Z,67.50
2018-03-22T08:59:16.440Z,67.50
2018-03-22T09:00:16.441Z,225.00
2018-03-22T09:01:16.462Z,157.50
2018-03-22T09:02:16.370Z,157.50
2018-03-22T09:03:16.439Z,202.50
2018-03-22T09:04:16.470Z,270.00
2018-03-22T09:05:16.493Z,112.50
2018-03-22T09:06:16.374Z,90.00
2018-03-22T09:07:16.497Z,112.50
2018-03-22T09:08:16.498Z,90.00
2018-03-22T09:09:16.494Z,90.00
2018-03-22T09:10:16.386Z,157.50
2018-03-22T09:11:16.490Z,270.00
2018-03-22T09:12:16.387Z,225.00
2018-03-22T09:13:16.465Z,112.50
2018-03-22T09:14:16.531Z,247.50
2018-03-22T09:15:16.496Z,225.00
2018-03-22T09:16:16.415Z,157.50
2018-03-22T09:17:16.497Z,112.50
2018-03-22T09:18:16.391Z,202.50
2018-03-22T09:19:16.480Z,180.00
2018-03-22T09:20:16.500Z,157.50
2018-03-22T09:21:16.449Z,202.50
2018-03-22T09:22:16.501Z,180.00
2018-03-22T09:23:16.448Z,157.50
2018-03-22T09:24:16.507Z,225.00
2018-03-22T09:25:16.474Z,202.50
2018-03-22T09:26:16.471Z,202.50
2018-03-22T09:27:16.421Z,202.50
2018-03-22T09:28:16.512Z,202.50
2018-03-22T09:29:16.398Z,202.50
2018-03-22T09:30:16.501Z,225.00
2018-03-22T09:31:16.391Z,225.00
2018-03-22T09:32:16.510Z,202.50
2018-03-22T09:33:16.483Z,180.00
2018-03-22T09:34:16.400Z,202.50
2018-03-22T09:35:16.464Z,157.50
2018-03-22T09:36:16.514Z,202.50
2018-03-22T09:37:16.511Z,180.00
2018-03-22T09:38:16.428Z,180.00
2018-03-22T09:39:16.428Z,225.00
2018-03-22T09:40:16.399Z,225.00
2018-03-22T09:41:16.474Z,157.50
2018-03-22T09:42:16.398Z,202.50
2018-03-22T09:43:16.408Z,202.50
2018-03-22T09:44:16.519Z,270.00
2018-03-22T09:45:16.466Z,225.00
2018-03-22T09:46:16.471Z,202.50
2018-03-22T09:47:16.519Z,270.00
2018-03-22T09:48:16.412Z,270.00
2018-03-22T09:49:16.427Z,247.50
2018-03-22T09:50:16.407Z,247.50
2018-03-22T09:51:16.467Z,247.50
2018-03-22T09:52:16.522Z,180.00
2018-03-22T09:53:16.428Z,202.50
2018-03-22T09:54:16.524Z,225.00
2018-03-22T09:55:16.493Z,225.00
2018-03-22T09:56:16.520Z,270.00
2018-03-22T09:57:16.440Z,247.50
2018-03-22T09:58:16.416Z,157.50
2018-03-22T09:59:16.528Z,247.50
2018-03-22T10:00:16.477Z,270.00
2018-03-22T10:01:16.420Z,247.50
2018-03-22T10:02:16.521Z,225.00
2018-03-22T10:03:16.456Z,247.50
2018-03-22T10:04:16.413Z,202.50
2018-03-22T10:05:16.434Z,247.50
2018-03-22T10:06:16.410Z,202.50
2018-03-22T10:07:16.524Z,180.00
2018-03-22T10:08:16.485Z,225.00
2018-03-22T10:09:16.477Z,247.50
2018-03-22T10:10:16.422Z,270.00
2018-03-22T10:11:16.535Z,180.00
2018-03-22T10:12:16.416Z,270.00
2018-03-22T10:13:16.534Z,247.50
2018-03-22T10:14:16.485Z,135.00
2018-03-22T10:15:16.529Z,247.50
2018-03-22T10:16:16.513Z,270.00
2018-03-22T10:17:16.538Z,225.00
2018-03-22T10:18:16.420Z,247.50
2018-03-22T10:19:16.493Z,270.00
2018-03-22T10:20:16.452Z,270.00
2018-03-22T10:21:16.536Z,247.50
2018-03-22T10:22:16.417Z,202.50
2018-03-22T10:23:16.509Z,270.00
2018-03-22T10:24:16.485Z,225.00
2018-03-22T10:25:16.518Z,202.50
2018-03-22T10:26:16.491Z,247.50
2018-03-22T10:27:16.481Z,180.00
2018-03-22T10:28:16.458Z,315.00
2018-03-22T10:29:16.470Z,247.50
2018-03-22T10:30:16.516Z,225.00
2018-03-22T10:31:16.546Z,202.50
2018-03-22T10:32:16.513Z,225.00
2018-03-22T10:33:16.543Z,180.00
2018-03-22T10:34:16.552Z,225.00
2018-03-22T10:35:16.437Z,225.00
2018-03-22T10:36:16.440Z,225.00
2018-03-22T10:37:16.518Z,225.00
2018-03-22T10:38:16.463Z,180.00
2018-03-22T10:39:16.469Z,180.00
2018-03-22T10:40:16.432Z,112.50
2018-03-22T10:41:16.498Z,247.50
2018-03-22T10:42:16.480Z,225.00
2018-03-22T10:43:16.469Z,225.00
2018-03-22T10:44:16.546Z,202.50
2018-03-22T10:45:16.523Z,247.50
2018-03-22T10:46:16.443Z,270.00
2018-03-22T10:47:16.448Z,202.50
2018-03-22T10:48:16.493Z,202.50
2018-03-22T10:49:16.468Z,202.50
2018-03-22T10:50:16.505Z,202.50
2018-03-22T10:51:16.501Z,270.00
2018-03-22T10:52:16.441Z,157.50
2018-03-22T10:53:16.553Z,247.50
2018-03-22T10:54:16.512Z,225.00
2018-03-22T10:55:16.532Z,270.00
2018-03-22T10:56:16.513Z,270.00
2018-03-22T10:57:16.566Z,202.50
2018-03-22T10:58:16.567Z,157.50
2018-03-22T10:59:16.564Z,270.00
2018-03-22T11:00:16.513Z,225.00
2018-03-22T11:01:16.564Z,292.50
2018-03-22T11:02:16.449Z,270.00
2018-03-22T11:03:16.477Z,180.00
2018-03-22T11:04:16.458Z,225.00
2018-03-22T11:05:16.505Z,90.00
2018-03-22T11:06:16.475Z,225.00
2018-03-22T11:07:16.458Z,270.00
2018-03-22T11:08:16.483Z,225.00
2018-03-22T11:09:16.521Z,202.50
2018-03-22T11:10:16.519Z,270.00
2018-03-22T11:11:16.525Z,270.00
2018-03-22T11:12:16.454Z,202.50
2018-03-22T11:13:16.519Z,225.00
2018-03-22T11:14:16.516Z,247.50
2018-03-22T11:15:16.581Z,225.00
2018-03-22T11:16:16.572Z,247.50
2018-03-22T11:17:16.485Z,247.50
2018-03-22T11:18:16.527Z,270.00
2018-03-22T11:19:16.570Z,247.50
2018-03-22T11:20:16.518Z,225.00
2018-03-22T11:21:16.487Z,247.50
2018-03-22T11:22:16.460Z,225.00
2018-03-22T11:23:16.491Z,225.00
2018-03-22T11:24:16.522Z,270.00
2018-03-22T11:25:16.529Z,247.50
2018-03-22T11:26:16.460Z,202.50
2018-03-22T11:27:16.489Z,202.50
2018-03-22T11:28:16.552Z,292.50
2018-03-22T11:29:16.577Z,225.00
2018-03-22T11:30:16.466Z,247.50
2018-03-22T11:31:16.466Z,247.50
2018-03-22T11:32:16.498Z,202.50
2018-03-22T11:33:16.588Z,225.00
2018-03-22T11:34:16.462Z,247.50
2018-03-22T11:35:16.462Z,270.00
2018-03-22T11:36:16.465Z,247.50
2018-03-22T11:37:16.577Z,247.50
2018-03-22T11:38:16.591Z,247.50
2018-03-22T11:39:16.504Z,225.00
2018-03-22T11:40:16.540Z,247.50
2018-03-22T11:41:16.482Z,270.00
2018-03-22T11:42:16.557Z,247.50
2018-03-22T11:43:16.567Z,270.00
2018-03-22T11:44:16.557Z,247.50
2018-03-22T11:45:16.567Z,225.00
2018-03-22T11:46:16.472Z,270.00
2018-03-22T11:47:16.542Z,270.00
2018-03-22T11:48:16.531Z,247.50
2018-03-22T11:49:16.534Z,247.50
2018-03-22T11:50:16.520Z,247.50
2018-03-22T11:51:16.571Z,270.00
2018-03-22T11:52:16.536Z,270.00
2018-03-22T11:53:16.548Z,247.50
2018-03-22T11:54:16.574Z,247.50
2018-03-22T11:55:16.487Z,225.00
2018-03-22T11:56:16.474Z,247.50
2018-03-22T11:57:16.540Z,270.00
2018-03-22T11:58:16.575Z,202.50
2018-03-22T11:59:16.503Z,157.50
2018-03-22T12:00:16.481Z,270.00
2018-03-22T12:01:16.505Z,247.50
2018-03-22T12:02:16.480Z,292.50
2018-03-22T12:03:16.605Z,292.50
2018-03-22T12:04:16.557Z,270.00
2018-03-22T12:05:16.483Z,225.00
2018-03-22T12:06:16.602Z,270.00
2018-03-22T12:07:16.493Z,225.00
2018-03-22T12:08:16.496Z,270.00
2018-03-22T12:09:16.512Z,270.00
2018-03-22T12:10:16.573Z,225.00
2018-03-22T12:11:16.608Z,270.00
2018-03-22T12:12:16.553Z,202.50
2018-03-22T12:13:16.606Z,247.50
2018-03-22T12:14:16.520Z,247.50
2018-03-22T12:15:16.555Z,270.00
2018-03-22T12:16:16.617Z,247.50
2018-03-22T12:17:16.608Z,225.00
2018-03-22T12:18:16.607Z,225.00
2018-03-22T12:19:16.613Z,180.00
2018-03-22T12:20:16.580Z,225.00
2018-03-22T12:21:16.618Z,247.50
2018-03-22T12:22:16.568Z,270.00
2018-03-22T12:23:16.565Z,247.50
2018-03-22T12:24:16.568Z,247.50
2018-03-22T12:25:16.617Z,225.00
2018-03-22T12:26:16.497Z,225.00
2018-03-22T12:27:16.610Z,202.50
2018-03-22T12:28:16.560Z,247.50
2018-03-22T12:29:16.509Z,202.50
2018-03-22T12:30:16.577Z,247.50
2018-03-22T12:31:16.499Z,247.50
2018-03-22T12:32:16.524Z,225.00
2018-03-22T12:33:16.515Z,247.50
2018-03-22T12:34:16.559Z,247.50
2018-03-22T12:35:16.616Z,225.00
2018-03-22T12:36:16.616Z,202.50